sensor_id;sensor_type;location;lat;lon;timestamp;P1;durP1;ratioP1;P2;durP2;ratioP2
11189;SDS011;5651;50.926;4.718;2022-12-29T00:02:15;4.40;;;2.00;;
11189;SDS011;5651;50.926;4.718;2022-12-29T00:04:41;1.50;;;1.17;;
11189;SDS011;5651;50.926;4.718;2022-12-29T00:07:07;2.60;;;1.30;;
11189;SDS011;5651;50.926;4.718;2022-12-29T00:09:34;1.95;;;1.40;;
11189;SDS011;5651;50.926;4.718;2022-12-29T00:12:00;3.63;;;1.05;;
11189;SDS011;5651;50.926;4.718;2022-12-29T00:14:27;2.03;;;1.30;;
11189;SDS011;5651;50.926;4.718;2022-12-29T00:17:12;2.17;;;1.50;;
11189;SDS011;5651;50.926;4.718;2022-12-29T00:19:38;2.13;;;1.38;;
11189;SDS011;5651;50.926;4.718;2022-12-29T00:22:23;2.70;;;2.38;;
11189;SDS011;5651;50.926;4.718;2022-12-29T00:25:08;2.30;;;0.93;;
11189;SDS011;5651;50.926;4.718;2022-12-29T00:27:54;4.82;;;2.38;;
11189;SDS011;5651;50.926;4.718;2022-12-29T00:30:39;2.28;;;1.10;;
11189;SDS011;5651;50.926;4.718;2022-12-29T00:33:25;1.33;;;1.10;;
11189;SDS011;5651;50.926;4.718;2022-12-29T00:36:26;2.75;;;1.10;;
11189;SDS011;5651;50.926;4.718;2022-12-29T00:39:03;1.48;;;1.10;;
11189;SDS011;5651;50.926;4.718;2022-12-29T00:41:55;3.88;;;0.90;;
11189;SDS011;5651;50.926;4.718;2022-12-29T00:44:39;1.67;;;1.05;;
11189;SDS011;5651;50.926;4.718;2022-12-29T00:47:05;9.48;;;3.42;;
11189;SDS011;5651;50.926;4.718;2022-12-29T00:49:31;1.83;;;0.60;;
11189;SDS011;5651;50.926;4.718;2022-12-29T00:54:26;2.58;;;1.40;;
11189;SDS011;5651;50.926;4.718;2022-12-29T00:56:53;4.25;;;1.10;;
11189;SDS011;5651;50.926;4.718;2022-12-29T00:59:19;3.30;;;1.13;;
11189;SDS011;5651;50.926;4.718;2022-12-29T01:01:47;4.20;;;1.10;;
11189;SDS011;5651;50.926;4.718;2022-12-29T01:04:14;1.75;;;0.90;;
11189;SDS011;5651;50.926;4.718;2022-12-29T01:06:40;1.70;;;0.90;;
11189;SDS011;5651;50.926;4.718;2022-12-29T01:09:06;4.15;;;0.80;;
11189;SDS011;5651;50.926;4.718;2022-12-29T01:11:51;4.43;;;1.17;;
11189;SDS011;5651;50.926;4.718;2022-12-29T01:14:17;2.55;;;1.23;;
11189;SDS011;5651;50.926;4.718;2022-12-29T01:16:48;5.78;;;1.23;;
11189;SDS011;5651;50.926;4.718;2022-12-29T01:19:15;4.53;;;1.40;;
11189;SDS011;5651;50.926;4.718;2022-12-29T01:21:41;4.95;;;1.42;;
11189;SDS011;5651;50.926;4.718;2022-12-29T01:24:08;7.00;;;1.58;;
11189;SDS011;5651;50.926;4.718;2022-12-29T01:26:34;3.35;;;1.55;;
11189;SDS011;5651;50.926;4.718;2022-12-29T01:28:59;1.05;;;0.90;;
11189;SDS011;5651;50.926;4.718;2022-12-29T01:31:25;4.18;;;1.73;;
11189;SDS011;5651;50.926;4.718;2022-12-29T01:33:51;3.40;;;1.27;;
11189;SDS011;5651;50.926;4.718;2022-12-29T01:36:17;3.92;;;1.45;;
11189;SDS011;5651;50.926;4.718;2022-12-29T01:38:43;3.15;;;1.30;;
11189;SDS011;5651;50.926;4.718;2022-12-29T01:41:10;4.85;;;1.42;;
11189;SDS011;5651;50.926;4.718;2022-12-29T01:43:38;3.67;;;1.40;;
11189;SDS011;5651;50.926;4.718;2022-12-29T01:51:35;1.50;;;0.90;;
11189;SDS011;5651;50.926;4.718;2022-12-29T01:54:04;2.60;;;1.30;;
11189;SDS011;5651;50.926;4.718;2022-12-29T01:56:33;1.80;;;1.20;;
11189;SDS011;5651;50.926;4.718;2022-12-29T01:59:06;1.65;;;1.20;;
11189;SDS011;5651;50.926;4.718;2022-12-29T02:01:37;4.32;;;1.52;;
11189;SDS011;5651;50.926;4.718;2022-12-29T02:04:03;3.47;;;1.15;;
11189;SDS011;5651;50.926;4.718;2022-12-29T02:06:32;4.13;;;1.50;;
11189;SDS011;5651;50.926;4.718;2022-12-29T02:09:06;4.60;;;1.33;;
11189;SDS011;5651;50.926;4.718;2022-12-29T02:11:32;3.72;;;0.95;;
11189;SDS011;5651;50.926;4.718;2022-12-29T02:14:00;1.70;;;0.60;;
11189;SDS011;5651;50.926;4.718;2022-12-29T02:22:16;3.03;;;0.80;;
11189;SDS011;5651;50.926;4.718;2022-12-29T02:33:41;6.05;;;0.90;;
11189;SDS011;5651;50.926;4.718;2022-12-29T02:36:13;2.75;;;0.50;;
11189;SDS011;5651;50.926;4.718;2022-12-29T02:38:50;1.70;;;0.50;;
11189;SDS011;5651;50.926;4.718;2022-12-29T02:42:20;3.05;;;1.17;;
11189;SDS011;5651;50.926;4.718;2022-12-29T02:49:50;4.03;;;0.70;;
11189;SDS011;5651;50.926;4.718;2022-12-29T02:52:30;0.90;;;0.40;;
11189;SDS011;5651;50.926;4.718;2022-12-29T02:55:04;1.90;;;0.57;;
11189;SDS011;5651;50.926;4.718;2022-12-29T02:57:35;3.05;;;0.60;;
11189;SDS011;5651;50.926;4.718;2022-12-29T03:00:05;0.45;;;0.45;;
11189;SDS011;5651;50.926;4.718;2022-12-29T03:02:52;3.17;;;0.50;;
11189;SDS011;5651;50.926;4.718;2022-12-29T03:08:44;4.75;;;0.63;;
11189;SDS011;5651;50.926;4.718;2022-12-29T03:11:20;3.42;;;0.60;;
11189;SDS011;5651;50.926;4.718;2022-12-29T03:14:14;1.60;;;0.40;;
11189;SDS011;5651;50.926;4.718;2022-12-29T03:17:17;3.75;;;1.10;;
11189;SDS011;5651;50.926;4.718;2022-12-29T03:19:53;1.52;;;0.40;;
11189;SDS011;5651;50.926;4.718;2022-12-29T03:22:27;2.55;;;0.68;;
11189;SDS011;5651;50.926;4.718;2022-12-29T03:25:03;2.38;;;0.57;;
11189;SDS011;5651;50.926;4.718;2022-12-29T03:27:50;1.92;;;0.47;;
11189;SDS011;5651;50.926;4.718;2022-12-29T03:30:22;1.75;;;0.65;;
11189;SDS011;5651;50.926;4.718;2022-12-29T03:32:50;5.40;;;0.75;;
11189;SDS011;5651;50.926;4.718;2022-12-29T03:35:20;4.13;;;0.60;;
11189;SDS011;5651;50.926;4.718;2022-12-29T03:37:50;7.72;;;0.70;;
11189;SDS011;5651;50.926;4.718;2022-12-29T03:40:18;3.72;;;0.68;;
11189;SDS011;5651;50.926;4.718;2022-12-29T03:42:47;6.53;;;0.90;;
11189;SDS011;5651;50.926;4.718;2022-12-29T03:45:13;3.50;;;0.60;;
11189;SDS011;5651;50.926;4.718;2022-12-29T03:47:39;1.25;;;0.43;;
11189;SDS011;5651;50.926;4.718;2022-12-29T03:50:05;0.73;;;0.63;;
11189;SDS011;5651;50.926;4.718;2022-12-29T03:52:33;3.42;;;0.95;;
11189;SDS011;5651;50.926;4.718;2022-12-29T03:55:00;2.10;;;0.60;;
11189;SDS011;5651;50.926;4.718;2022-12-29T03:57:25;2.95;;;0.63;;
11189;SDS011;5651;50.926;4.718;2022-12-29T03:59:51;0.88;;;0.40;;
11189;SDS011;5651;50.926;4.718;2022-12-29T04:02:17;3.35;;;0.90;;
11189;SDS011;5651;50.926;4.718;2022-12-29T04:04:43;2.13;;;0.60;;
11189;SDS011;5651;50.926;4.718;2022-12-29T04:07:08;3.33;;;1.02;;
11189;SDS011;5651;50.926;4.718;2022-12-29T04:09:34;5.47;;;1.50;;
11189;SDS011;5651;50.926;4.718;2022-12-29T04:12:00;4.40;;;0.88;;
11189;SDS011;5651;50.926;4.718;2022-12-29T04:14:25;5.20;;;1.00;;
11189;SDS011;5651;50.926;4.718;2022-12-29T04:16:51;4.80;;;1.00;;
11189;SDS011;5651;50.926;4.718;2022-12-29T04:19:17;4.97;;;1.10;;
11189;SDS011;5651;50.926;4.718;2022-12-29T04:21:43;6.20;;;1.20;;
11189;SDS011;5651;50.926;4.718;2022-12-29T04:24:09;3.25;;;1.00;;
11189;SDS011;5651;50.926;4.718;2022-12-29T04:26:34;9.48;;;1.27;;
11189;SDS011;5651;50.926;4.718;2022-12-29T04:29:00;3.13;;;0.73;;
11189;SDS011;5651;50.926;4.718;2022-12-29T04:31:26;4.70;;;0.73;;
11189;SDS011;5651;50.926;4.718;2022-12-29T04:33:52;7.35;;;1.85;;
11189;SDS011;5651;50.926;4.718;2022-12-29T04:36:18;3.25;;;0.82;;
11189;SDS011;5651;50.926;4.718;2022-12-29T04:38:43;6.88;;;2.80;;
11189;SDS011;5651;50.926;4.718;2022-12-29T04:41:09;3.17;;;0.90;;
11189;SDS011;5651;50.926;4.718;2022-12-29T04:43:35;3.47;;;1.02;;
11189;SDS011;5651;50.926;4.718;2022-12-29T04:46:01;4.68;;;0.80;;
11189;SDS011;5651;50.926;4.718;2022-12-29T04:48:26;5.07;;;0.85;;
11189;SDS011;5651;50.926;4.718;2022-12-29T04:50:52;2.78;;;1.27;;
11189;SDS011;5651;50.926;4.718;2022-12-29T04:53:18;3.28;;;0.90;;
11189;SDS011;5651;50.926;4.718;2022-12-29T04:55:43;3.72;;;1.23;;
11189;SDS011;5651;50.926;4.718;2022-12-29T04:58:10;2.53;;;0.63;;
11189;SDS011;5651;50.926;4.718;2022-12-29T05:00:36;4.53;;;1.05;;
11189;SDS011;5651;50.926;4.718;2022-12-29T05:03:02;6.28;;;1.35;;
11189;SDS011;5651;50.926;4.718;2022-12-29T05:05:28;7.38;;;1.63;;
11189;SDS011;5651;50.926;4.718;2022-12-29T05:07:54;3.40;;;0.93;;
11189;SDS011;5651;50.926;4.718;2022-12-29T05:10:19;4.57;;;0.80;;
11189;SDS011;5651;50.926;4.718;2022-12-29T05:12:45;5.50;;;1.15;;
11189;SDS011;5651;50.926;4.718;2022-12-29T05:15:11;2.50;;;0.70;;
11189;SDS011;5651;50.926;4.718;2022-12-29T05:17:37;4.80;;;1.40;;
11189;SDS011;5651;50.926;4.718;2022-12-29T05:20:03;7.03;;;0.82;;
11189;SDS011;5651;50.926;4.718;2022-12-29T05:22:30;1.90;;;0.50;;
11189;SDS011;5651;50.926;4.718;2022-12-29T05:24:56;4.50;;;1.00;;
11189;SDS011;5651;50.926;4.718;2022-12-29T05:27:22;5.15;;;1.10;;
11189;SDS011;5651;50.926;4.718;2022-12-29T05:29:47;5.28;;;1.98;;
11189;SDS011;5651;50.926;4.718;2022-12-29T05:32:13;7.47;;;1.23;;
11189;SDS011;5651;50.926;4.718;2022-12-29T05:34:39;4.35;;;0.90;;
11189;SDS011;5651;50.926;4.718;2022-12-29T05:37:05;4.15;;;0.95;;
11189;SDS011;5651;50.926;4.718;2022-12-29T05:39:30;6.90;;;1.35;;
11189;SDS011;5651;50.926;4.718;2022-12-29T05:41:56;4.13;;;1.08;;
11189;SDS011;5651;50.926;4.718;2022-12-29T05:44:22;7.57;;;1.67;;
11189;SDS011;5651;50.926;4.718;2022-12-29T05:46:48;8.65;;;1.10;;
11189;SDS011;5651;50.926;4.718;2022-12-29T05:49:15;4.35;;;0.90;;
11189;SDS011;5651;50.926;4.718;2022-12-29T05:51:41;4.88;;;1.42;;
11189;SDS011;5651;50.926;4.718;2022-12-29T05:54:07;3.88;;;1.00;;
11189;SDS011;5651;50.926;4.718;2022-12-29T05:56:33;6.22;;;1.35;;
11189;SDS011;5651;50.926;4.718;2022-12-29T05:59:00;6.43;;;2.28;;
11189;SDS011;5651;50.926;4.718;2022-12-29T06:01:26;4.35;;;1.98;;
11189;SDS011;5651;50.926;4.718;2022-12-29T06:03:52;4.47;;;1.48;;
11189;SDS011;5651;50.926;4.718;2022-12-29T06:06:18;8.48;;;2.40;;
11189;SDS011;5651;50.926;4.718;2022-12-29T06:08:44;10.07;;;1.65;;
11189;SDS011;5651;50.926;4.718;2022-12-29T06:11:10;6.55;;;1.30;;
11189;SDS011;5651;50.926;4.718;2022-12-29T06:13:36;4.10;;;1.05;;
11189;SDS011;5651;50.926;4.718;2022-12-29T06:16:02;7.88;;;1.20;;
11189;SDS011;5651;50.926;4.718;2022-12-29T06:18:28;6.00;;;2.60;;
11189;SDS011;5651;50.926;4.718;2022-12-29T06:20:54;5.32;;;1.20;;
11189;SDS011;5651;50.926;4.718;2022-12-29T06:23:19;9.25;;;1.33;;
11189;SDS011;5651;50.926;4.718;2022-12-29T06:25:46;13.27;;;1.30;;
11189;SDS011;5651;50.926;4.718;2022-12-29T06:28:13;5.68;;;0.82;;
11189;SDS011;5651;50.926;4.718;2022-12-29T06:30:39;5.15;;;1.05;;
11189;SDS011;5651;50.926;4.718;2022-12-29T06:33:05;8.13;;;1.50;;
11189;SDS011;5651;50.926;4.718;2022-12-29T06:35:33;5.97;;;1.13;;
11189;SDS011;5651;50.926;4.718;2022-12-29T06:37:58;3.85;;;0.90;;
11189;SDS011;5651;50.926;4.718;2022-12-29T06:40:24;3.80;;;1.00;;
11189;SDS011;5651;50.926;4.718;2022-12-29T06:42:50;13.38;;;2.35;;
11189;SDS011;5651;50.926;4.718;2022-12-29T06:45:16;11.57;;;1.40;;
11189;SDS011;5651;50.926;4.718;2022-12-29T06:47:41;9.40;;;1.38;;
11189;SDS011;5651;50.926;4.718;2022-12-29T06:50:07;6.25;;;1.20;;
11189;SDS011;5651;50.926;4.718;2022-12-29T06:52:33;5.50;;;1.23;;
11189;SDS011;5651;50.926;4.718;2022-12-29T06:54:59;4.78;;;1.27;;
11189;SDS011;5651;50.926;4.718;2022-12-29T06:57:25;3.67;;;1.13;;
11189;SDS011;5651;50.926;4.718;2022-12-29T06:59:51;7.15;;;1.42;;
11189;SDS011;5651;50.926;4.718;2022-12-29T07:02:17;9.13;;;2.28;;
11189;SDS011;5651;50.926;4.718;2022-12-29T07:04:44;7.15;;;1.15;;
11189;SDS011;5651;50.926;4.718;2022-12-29T07:07:10;10.18;;;1.48;;
11189;SDS011;5651;50.926;4.718;2022-12-29T07:09:36;8.55;;;1.45;;
11189;SDS011;5651;50.926;4.718;2022-12-29T07:12:01;5.95;;;1.42;;
11189;SDS011;5651;50.926;4.718;2022-12-29T07:14:27;3.60;;;1.23;;
11189;SDS011;5651;50.926;4.718;2022-12-29T07:16:53;9.32;;;1.23;;
11189;SDS011;5651;50.926;4.718;2022-12-29T07:19:19;3.05;;;0.90;;
11189;SDS011;5651;50.926;4.718;2022-12-29T07:21:45;10.73;;;1.58;;
11189;SDS011;5651;50.926;4.718;2022-12-29T07:24:11;7.57;;;1.48;;
11189;SDS011;5651;50.926;4.718;2022-12-29T07:26:36;2.38;;;0.95;;
11189;SDS011;5651;50.926;4.718;2022-12-29T07:29:03;7.00;;;1.42;;
11189;SDS011;5651;50.926;4.718;2022-12-29T07:31:29;7.50;;;1.33;;
11189;SDS011;5651;50.926;4.718;2022-12-29T07:33:55;6.55;;;1.25;;
11189;SDS011;5651;50.926;4.718;2022-12-29T07:36:20;4.05;;;0.95;;
11189;SDS011;5651;50.926;4.718;2022-12-29T07:38:46;7.78;;;1.70;;
11189;SDS011;5651;50.926;4.718;2022-12-29T07:41:12;9.60;;;1.95;;
11189;SDS011;5651;50.926;4.718;2022-12-29T07:43:38;6.30;;;2.25;;
11189;SDS011;5651;50.926;4.718;2022-12-29T07:46:03;9.88;;;1.50;;
11189;SDS011;5651;50.926;4.718;2022-12-29T07:48:29;5.85;;;1.33;;
11189;SDS011;5651;50.926;4.718;2022-12-29T07:50:55;12.38;;;1.70;;
11189;SDS011;5651;50.926;4.718;2022-12-29T07:53:21;4.57;;;1.67;;
11189;SDS011;5651;50.926;4.718;2022-12-29T07:55:47;7.38;;;2.17;;
11189;SDS011;5651;50.926;4.718;2022-12-29T07:58:13;5.25;;;1.15;;
11189;SDS011;5651;50.926;4.718;2022-12-29T08:00:39;8.63;;;1.70;;
11189;SDS011;5651;50.926;4.718;2022-12-29T08:03:05;5.38;;;1.75;;
11189;SDS011;5651;50.926;4.718;2022-12-29T08:05:31;8.88;;;1.77;;
11189;SDS011;5651;50.926;4.718;2022-12-29T08:07:57;9.48;;;1.73;;
11189;SDS011;5651;50.926;4.718;2022-12-29T08:10:23;8.77;;;1.85;;
11189;SDS011;5651;50.926;4.718;2022-12-29T08:12:49;8.70;;;1.70;;
11189;SDS011;5651;50.926;4.718;2022-12-29T08:15:15;9.10;;;1.58;;
11189;SDS011;5651;50.926;4.718;2022-12-29T08:17:42;8.48;;;1.98;;
11189;SDS011;5651;50.926;4.718;2022-12-29T08:20:08;13.80;;;2.50;;
11189;SDS011;5651;50.926;4.718;2022-12-29T08:22:34;11.18;;;2.13;;
11189;SDS011;5651;50.926;4.718;2022-12-29T08:25:00;7.68;;;1.58;;
11189;SDS011;5651;50.926;4.718;2022-12-29T08:27:26;8.63;;;1.42;;
11189;SDS011;5651;50.926;4.718;2022-12-29T08:29:52;9.95;;;1.45;;
11189;SDS011;5651;50.926;4.718;2022-12-29T08:32:18;8.48;;;2.08;;
11189;SDS011;5651;50.926;4.718;2022-12-29T08:34:44;12.40;;;3.10;;
11189;SDS011;5651;50.926;4.718;2022-12-29T08:37:11;6.20;;;1.50;;
11189;SDS011;5651;50.926;4.718;2022-12-29T08:39:37;5.30;;;1.45;;
11189;SDS011;5651;50.926;4.718;2022-12-29T08:42:03;11.30;;;2.35;;
11189;SDS011;5651;50.926;4.718;2022-12-29T08:44:28;13.57;;;2.53;;
11189;SDS011;5651;50.926;4.718;2022-12-29T08:46:54;7.75;;;1.50;;
11189;SDS011;5651;50.926;4.718;2022-12-29T08:49:20;6.57;;;1.35;;
11189;SDS011;5651;50.926;4.718;2022-12-29T08:51:45;9.75;;;1.92;;
11189;SDS011;5651;50.926;4.718;2022-12-29T08:54:11;10.68;;;1.85;;
11189;SDS011;5651;50.926;4.718;2022-12-29T08:56:37;3.72;;;0.80;;
11189;SDS011;5651;50.926;4.718;2022-12-29T08:59:03;8.57;;;1.70;;
11189;SDS011;5651;50.926;4.718;2022-12-29T09:01:29;26.33;;;2.55;;
11189;SDS011;5651;50.926;4.718;2022-12-29T09:03:55;6.80;;;1.90;;
11189;SDS011;5651;50.926;4.718;2022-12-29T09:06:21;6.90;;;1.73;;
11189;SDS011;5651;50.926;4.718;2022-12-29T09:08:47;12.55;;;2.15;;
11189;SDS011;5651;50.926;4.718;2022-12-29T09:11:16;10.18;;;2.00;;
11189;SDS011;5651;50.926;4.718;2022-12-29T09:16:12;4.40;;;1.60;;
11189;SDS011;5651;50.926;4.718;2022-12-29T09:18:38;7.82;;;1.67;;
11189;SDS011;5651;50.926;4.718;2022-12-29T09:21:05;5.70;;;2.22;;
11189;SDS011;5651;50.926;4.718;2022-12-29T09:23:32;8.82;;;1.80;;
11189;SDS011;5651;50.926;4.718;2022-12-29T09:25:58;8.82;;;1.58;;
11189;SDS011;5651;50.926;4.718;2022-12-29T09:28:24;12.05;;;2.67;;
11189;SDS011;5651;50.926;4.718;2022-12-29T09:30:50;8.23;;;1.33;;
11189;SDS011;5651;50.926;4.718;2022-12-29T09:33:16;3.80;;;1.60;;
11189;SDS011;5651;50.926;4.718;2022-12-29T09:35:50;2.60;;;1.40;;
11189;SDS011;5651;50.926;4.718;2022-12-29T09:38:19;9.93;;;2.25;;
11189;SDS011;5651;50.926;4.718;2022-12-29T09:40:49;8.95;;;1.60;;
11189;SDS011;5651;50.926;4.718;2022-12-29T09:43:20;11.38;;;2.33;;
11189;SDS011;5651;50.926;4.718;2022-12-29T09:48:43;11.40;;;1.45;;
11189;SDS011;5651;50.926;4.718;2022-12-29T09:51:13;10.75;;;1.60;;
11189;SDS011;5651;50.926;4.718;2022-12-29T09:53:46;7.00;;;1.55;;
11189;SDS011;5651;50.926;4.718;2022-12-29T09:56:20;7.18;;;1.60;;
11189;SDS011;5651;50.926;4.718;2022-12-29T09:58:52;19.23;;;3.60;;
11189;SDS011;5651;50.926;4.718;2022-12-29T10:01:52;9.93;;;1.48;;
11189;SDS011;5651;50.926;4.718;2022-12-29T10:04:27;10.75;;;1.58;;
11189;SDS011;5651;50.926;4.718;2022-12-29T10:06:57;10.50;;;2.05;;
11189;SDS011;5651;50.926;4.718;2022-12-29T10:09:37;7.40;;;1.48;;
11189;SDS011;5651;50.926;4.718;2022-12-29T10:15:35;7.93;;;1.80;;
11189;SDS011;5651;50.926;4.718;2022-12-29T10:18:32;6.82;;;1.25;;
11189;SDS011;5651;50.926;4.718;2022-12-29T10:23:44;8.48;;;2.67;;
11189;SDS011;5651;50.926;4.718;2022-12-29T10:26:14;10.50;;;1.65;;
11189;SDS011;5651;50.926;4.718;2022-12-29T10:28:45;9.80;;;1.77;;
11189;SDS011;5651;50.926;4.718;2022-12-29T10:31:16;9.40;;;1.77;;
11189;SDS011;5651;50.926;4.718;2022-12-29T10:33:48;9.90;;;1.80;;
11189;SDS011;5651;50.926;4.718;2022-12-29T10:36:24;5.40;;;1.23;;
11189;SDS011;5651;50.926;4.718;2022-12-29T10:44:30;10.25;;;2.35;;
11189;SDS011;5651;50.926;4.718;2022-12-29T10:46:58;13.75;;;2.13;;
11189;SDS011;5651;50.926;4.718;2022-12-29T10:49:26;10.00;;;1.48;;
11189;SDS011;5651;50.926;4.718;2022-12-29T10:51:56;12.65;;;2.60;;
11189;SDS011;5651;50.926;4.718;2022-12-29T10:54:48;9.80;;;1.67;;
11189;SDS011;5651;50.926;4.718;2022-12-29T10:59:52;6.30;;;1.58;;
11189;SDS011;5651;50.926;4.718;2022-12-29T11:05:28;10.00;;;2.17;;
11189;SDS011;5651;50.926;4.718;2022-12-29T11:08:02;6.40;;;1.42;;
11189;SDS011;5651;50.926;4.718;2022-12-29T11:13:00;9.27;;;1.38;;
11189;SDS011;5651;50.926;4.718;2022-12-29T11:15:37;7.35;;;1.48;;
11189;SDS011;5651;50.926;4.718;2022-12-29T11:18:07;14.60;;;2.38;;
11189;SDS011;5651;50.926;4.718;2022-12-29T11:20:51;9.35;;;2.33;;
11189;SDS011;5651;50.926;4.718;2022-12-29T11:23:26;6.13;;;1.48;;
11189;SDS011;5651;50.926;4.718;2022-12-29T11:31:39;12.63;;;2.05;;
11189;SDS011;5651;50.926;4.718;2022-12-29T11:34:07;8.85;;;1.90;;
11189;SDS011;5651;50.926;4.718;2022-12-29T11:36:33;4.55;;;1.48;;
11189;SDS011;5651;50.926;4.718;2022-12-29T11:39:01;16.25;;;2.38;;
11189;SDS011;5651;50.926;4.718;2022-12-29T11:41:28;10.65;;;2.22;;
11189;SDS011;5651;50.926;4.718;2022-12-29T11:43:57;11.82;;;1.92;;
11189;SDS011;5651;50.926;4.718;2022-12-29T11:46:26;12.95;;;2.47;;
11189;SDS011;5651;50.926;4.718;2022-12-29T11:48:56;9.95;;;2.00;;
11189;SDS011;5651;50.926;4.718;2022-12-29T11:54:06;9.30;;;2.92;;
11189;SDS011;5651;50.926;4.718;2022-12-29T11:56:42;10.73;;;2.13;;
11189;SDS011;5651;50.926;4.718;2022-12-29T12:02:18;12.60;;;2.10;;
11189;SDS011;5651;50.926;4.718;2022-12-29T12:04:55;13.13;;;1.92;;
11189;SDS011;5651;50.926;4.718;2022-12-29T12:07:44;11.23;;;2.20;;
11189;SDS011;5651;50.926;4.718;2022-12-29T12:10:23;11.98;;;2.08;;
11189;SDS011;5651;50.926;4.718;2022-12-29T12:15:44;6.57;;;2.15;;
11189;SDS011;5651;50.926;4.718;2022-12-29T12:21:04;12.25;;;2.25;;
11189;SDS011;5651;50.926;4.718;2022-12-29T12:32:13;10.38;;;2.00;;
11189;SDS011;5651;50.926;4.718;2022-12-29T12:34:45;9.70;;;3.15;;
11189;SDS011;5651;50.926;4.718;2022-12-29T13:01:38;6.68;;;2.50;;
11189;SDS011;5651;50.926;4.718;2022-12-29T13:12:32;24.70;;;9.43;;
11189;SDS011;5651;50.926;4.718;2022-12-29T13:17:51;7.90;;;2.45;;
11189;SDS011;5651;50.926;4.718;2022-12-29T13:20:36;11.93;;;2.28;;
11189;SDS011;5651;50.926;4.718;2022-12-29T13:25:47;7.50;;;2.17;;
11189;SDS011;5651;50.926;4.718;2022-12-29T13:31:26;10.05;;;2.60;;
11189;SDS011;5651;50.926;4.718;2022-12-29T13:37:04;10.38;;;2.78;;
11189;SDS011;5651;50.926;4.718;2022-12-29T13:39:37;7.22;;;2.42;;
11189;SDS011;5651;50.926;4.718;2022-12-29T13:42:07;10.15;;;2.25;;
11189;SDS011;5651;50.926;4.718;2022-12-29T13:44:46;9.35;;;2.15;;
11189;SDS011;5651;50.926;4.718;2022-12-29T13:47:21;9.35;;;2.67;;
11189;SDS011;5651;50.926;4.718;2022-12-29T13:49:54;5.30;;;1.52;;
11189;SDS011;5651;50.926;4.718;2022-12-29T13:52:32;11.27;;;2.50;;
11189;SDS011;5651;50.926;4.718;2022-12-29T13:57:42;132.02;;;28.77;;
11189;SDS011;5651;50.926;4.718;2022-12-29T14:00:32;218.40;;;58.57;;
11189;SDS011;5651;50.926;4.718;2022-12-29T14:08:45;45.53;;;18.55;;
11189;SDS011;5651;50.926;4.718;2022-12-29T14:11:14;11.38;;;3.72;;
11189;SDS011;5651;50.926;4.718;2022-12-29T14:13:45;12.48;;;2.35;;
11189;SDS011;5651;50.926;4.718;2022-12-29T14:18:55;10.60;;;4.32;;
11189;SDS011;5651;50.926;4.718;2022-12-29T14:21:29;8.32;;;2.67;;
11189;SDS011;5651;50.926;4.718;2022-12-29T14:24:02;14.98;;;4.00;;
11189;SDS011;5651;50.926;4.718;2022-12-29T14:29:54;12.73;;;3.33;;
11189;SDS011;5651;50.926;4.718;2022-12-29T14:34:45;10.05;;;2.30;;
11189;SDS011;5651;50.926;4.718;2022-12-29T14:37:26;14.07;;;3.63;;
11189;SDS011;5651;50.926;4.718;2022-12-29T14:42:38;14.40;;;3.35;;
11189;SDS011;5651;50.926;4.718;2022-12-29T14:45:06;14.95;;;3.13;;
11189;SDS011;5651;50.926;4.718;2022-12-29T14:47:49;9.50;;;2.17;;
11189;SDS011;5651;50.926;4.718;2022-12-29T14:50:23;17.50;;;4.30;;
11189;SDS011;5651;50.926;4.718;2022-12-29T14:56:24;11.68;;;3.05;;
11189;SDS011;5651;50.926;4.718;2022-12-29T14:58:55;11.90;;;2.65;;
11189;SDS011;5651;50.926;4.718;2022-12-29T15:04:00;13.95;;;2.78;;
11189;SDS011;5651;50.926;4.718;2022-12-29T15:06:38;13.45;;;2.90;;
11189;SDS011;5651;50.926;4.718;2022-12-29T15:09:12;7.63;;;1.80;;
11189;SDS011;5651;50.926;4.718;2022-12-29T15:11:48;8.15;;;2.80;;
11189;SDS011;5651;50.926;4.718;2022-12-29T15:16:56;4.68;;;1.60;;
11189;SDS011;5651;50.926;4.718;2022-12-29T15:19:22;7.90;;;1.63;;
11189;SDS011;5651;50.926;4.718;2022-12-29T15:21:49;6.45;;;2.55;;
11189;SDS011;5651;50.926;4.718;2022-12-29T15:24:15;8.82;;;2.00;;
11189;SDS011;5651;50.926;4.718;2022-12-29T15:26:45;6.45;;;1.70;;
11189;SDS011;5651;50.926;4.718;2022-12-29T15:32:22;10.00;;;1.85;;
11189;SDS011;5651;50.926;4.718;2022-12-29T15:34:53;6.15;;;2.08;;
11189;SDS011;5651;50.926;4.718;2022-12-29T15:37:25;5.97;;;1.73;;
11189;SDS011;5651;50.926;4.718;2022-12-29T15:39:53;9.82;;;2.30;;
11189;SDS011;5651;50.926;4.718;2022-12-29T15:42:29;6.78;;;1.60;;
11189;SDS011;5651;50.926;4.718;2022-12-29T15:45:13;9.57;;;1.90;;
11189;SDS011;5651;50.926;4.718;2022-12-29T15:47:41;9.57;;;1.77;;
11189;SDS011;5651;50.926;4.718;2022-12-29T15:50:14;8.25;;;1.88;;
11189;SDS011;5651;50.926;4.718;2022-12-29T15:52:47;4.82;;;1.67;;
11189;SDS011;5651;50.926;4.718;2022-12-29T15:55:18;5.50;;;1.67;;
11189;SDS011;5651;50.926;4.718;2022-12-29T15:57:57;7.13;;;2.15;;
11189;SDS011;5651;50.926;4.718;2022-12-29T16:00:26;7.20;;;1.92;;
11189;SDS011;5651;50.926;4.718;2022-12-29T16:02:57;6.15;;;2.08;;
11189;SDS011;5651;50.926;4.718;2022-12-29T16:05:31;8.55;;;2.63;;
11189;SDS011;5651;50.926;4.718;2022-12-29T16:10:35;8.73;;;3.47;;
11189;SDS011;5651;50.926;4.718;2022-12-29T16:13:16;4.55;;;1.75;;
11189;SDS011;5651;50.926;4.718;2022-12-29T16:15:47;6.68;;;2.08;;
11189;SDS011;5651;50.926;4.718;2022-12-29T16:18:21;11.07;;;2.70;;
11189;SDS011;5651;50.926;4.718;2022-12-29T16:20:51;10.95;;;3.03;;
11189;SDS011;5651;50.926;4.718;2022-12-29T16:23:24;11.18;;;2.78;;
11189;SDS011;5651;50.926;4.718;2022-12-29T16:25:53;13.98;;;2.70;;
11189;SDS011;5651;50.926;4.718;2022-12-29T16:28:23;12.05;;;3.78;;
11189;SDS011;5651;50.926;4.718;2022-12-29T16:31:06;17.10;;;3.83;;
11189;SDS011;5651;50.926;4.718;2022-12-29T16:33:50;12.25;;;2.78;;
11189;SDS011;5651;50.926;4.718;2022-12-29T16:36:39;10.93;;;2.97;;
11189;SDS011;5651;50.926;4.718;2022-12-29T16:41:49;12.07;;;4.30;;
11189;SDS011;5651;50.926;4.718;2022-12-29T16:44:19;12.40;;;2.90;;
11189;SDS011;5651;50.926;4.718;2022-12-29T16:49:28;18.02;;;5.38;;
11189;SDS011;5651;50.926;4.718;2022-12-29T16:51:56;9.75;;;3.03;;
11189;SDS011;5651;50.926;4.718;2022-12-29T16:54:24;15.18;;;4.10;;
11189;SDS011;5651;50.926;4.718;2022-12-29T16:56:53;13.50;;;3.95;;
11189;SDS011;5651;50.926;4.718;2022-12-29T16:59:31;15.95;;;3.92;;
11189;SDS011;5651;50.926;4.718;2022-12-29T17:02:00;13.02;;;4.25;;
11189;SDS011;5651;50.926;4.718;2022-12-29T17:04:31;13.80;;;3.72;;
11189;SDS011;5651;50.926;4.718;2022-12-29T17:06:57;18.83;;;4.78;;
11189;SDS011;5651;50.926;4.718;2022-12-29T17:09:23;15.48;;;6.03;;
11189;SDS011;5651;50.926;4.718;2022-12-29T17:11:51;20.88;;;7.68;;
11189;SDS011;5651;50.926;4.718;2022-12-29T17:17:02;15.50;;;6.50;;
11189;SDS011;5651;50.926;4.718;2022-12-29T17:19:30;25.20;;;6.50;;
11189;SDS011;5651;50.926;4.718;2022-12-29T17:21:58;11.98;;;4.15;;
11189;SDS011;5651;50.926;4.718;2022-12-29T17:24:24;20.80;;;6.90;;
11189;SDS011;5651;50.926;4.718;2022-12-29T17:26:54;17.88;;;5.90;;
11189;SDS011;5651;50.926;4.718;2022-12-29T17:29:30;18.75;;;5.43;;
11189;SDS011;5651;50.926;4.718;2022-12-29T17:31:59;21.77;;;6.25;;
11189;SDS011;5651;50.926;4.718;2022-12-29T17:34:26;10.30;;;3.65;;
11189;SDS011;5651;50.926;4.718;2022-12-29T17:36:52;10.57;;;3.13;;
11189;SDS011;5651;50.926;4.718;2022-12-29T17:39:18;13.02;;;3.60;;
11189;SDS011;5651;50.926;4.718;2022-12-29T17:41:44;11.98;;;3.35;;
11189;SDS011;5651;50.926;4.718;2022-12-29T17:44:18;12.40;;;3.45;;
11189;SDS011;5651;50.926;4.718;2022-12-29T17:46:46;11.80;;;3.45;;
11189;SDS011;5651;50.926;4.718;2022-12-29T17:49:13;15.35;;;4.68;;
11189;SDS011;5651;50.926;4.718;2022-12-29T17:51:41;16.83;;;3.72;;
11189;SDS011;5651;50.926;4.718;2022-12-29T17:54:22;14.05;;;5.28;;
11189;SDS011;5651;50.926;4.718;2022-12-29T17:56:49;15.07;;;6.05;;
11189;SDS011;5651;50.926;4.718;2022-12-29T17:59:16;10.68;;;2.67;;
11189;SDS011;5651;50.926;4.718;2022-12-29T18:01:43;14.90;;;4.10;;
11189;SDS011;5651;50.926;4.718;2022-12-29T18:04:11;14.75;;;4.53;;